sensor_id;sensor_type;location;lat;lon;timestamp;P1;durP1;ratioP1;P2;durP2;ratioP2
66761;SDS011;53672;48.176;16.338;2022-08-21T00:04:40;6.37;;;3.60;;
66761;SDS011;53672;48.176;16.338;2022-08-21T00:09:42;5.63;;;3.33;;
66761;SDS011;53672;48.176;16.338;2022-08-21T00:14:43;7.30;;;3.55;;
66761;SDS011;53672;48.176;16.338;2022-08-21T00:19:43;6.50;;;3.70;;
66761;SDS011;53672;48.176;16.338;2022-08-21T00:24:45;5.97;;;3.50;;
66761;SDS011;53672;48.176;16.338;2022-08-21T00:29:46;6.10;;;3.50;;
66761;SDS011;53672;48.176;16.338;2022-08-21T00:34:46;6.47;;;4.20;;
66761;SDS011;53672;48.176;16.338;2022-08-21T00:39:48;6.13;;;3.70;;
66761;SDS011;53672;48.176;16.338;2022-08-21T00:44:49;7.82;;;4.55;;
66761;SDS011;53672;48.176;16.338;2022-08-21T00:49:49;6.85;;;4.20;;
66761;SDS011;53672;48.176;16.338;2022-08-21T00:54:51;7.60;;;4.63;;
66761;SDS011;53672;48.176;16.338;2022-08-21T00:59:55;7.22;;;4.40;;
66761;SDS011;53672;48.176;16.338;2022-08-21T01:04:58;7.33;;;4.47;;
66761;SDS011;53672;48.176;16.338;2022-08-21T01:10:00;8.03;;;4.50;;
66761;SDS011;53672;48.176;16.338;2022-08-21T01:15:01;8.18;;;4.93;;
66761;SDS011;53672;48.176;16.338;2022-08-21T01:20:04;7.55;;;4.25;;
66761;SDS011;53672;48.176;16.338;2022-08-21T01:25:10;8.43;;;4.70;;
66761;SDS011;53672;48.176;16.338;2022-08-21T01:30:13;8.13;;;4.90;;
66761;SDS011;53672;48.176;16.338;2022-08-21T01:35:17;10.52;;;4.50;;
66761;SDS011;53672;48.176;16.338;2022-08-21T01:40:19;8.25;;;5.00;;
66761;SDS011;53672;48.176;16.338;2022-08-21T01:45:20;7.75;;;4.63;;
66761;SDS011;53672;48.176;16.338;2022-08-21T01:50:21;7.70;;;4.80;;
66761;SDS011;53672;48.176;16.338;2022-08-21T01:55:23;8.60;;;5.50;;
66761;SDS011;53672;48.176;16.338;2022-08-21T02:00:24;8.43;;;5.60;;
66761;SDS011;53672;48.176;16.338;2022-08-21T02:05:25;10.20;;;5.43;;
66761;SDS011;53672;48.176;16.338;2022-08-21T02:10:27;9.20;;;5.65;;
66761;SDS011;53672;48.176;16.338;2022-08-21T02:15:29;9.63;;;5.73;;
66761;SDS011;53672;48.176;16.338;2022-08-21T02:20:31;9.43;;;6.03;;
66761;SDS011;53672;48.176;16.338;2022-08-21T02:25:34;10.73;;;6.07;;
66761;SDS011;53672;48.176;16.338;2022-08-21T02:30:36;8.18;;;5.30;;
66761;SDS011;53672;48.176;16.338;2022-08-21T02:35:39;8.80;;;5.43;;
66761;SDS011;53672;48.176;16.338;2022-08-21T02:40:43;9.63;;;5.60;;
66761;SDS011;53672;48.176;16.338;2022-08-21T02:45:46;8.80;;;5.57;;
66761;SDS011;53672;48.176;16.338;2022-08-21T02:50:48;11.20;;;5.77;;
66761;SDS011;53672;48.176;16.338;2022-08-21T02:55:53;8.88;;;5.57;;
66761;SDS011;53672;48.176;16.338;2022-08-21T03:00:56;9.15;;;5.40;;
66761;SDS011;53672;48.176;16.338;2022-08-21T03:05:56;9.97;;;5.90;;
66761;SDS011;53672;48.176;16.338;2022-08-21T03:10:59;9.10;;;5.33;;
66761;SDS011;53672;48.176;16.338;2022-08-21T03:15:59;8.68;;;5.78;;
66761;SDS011;53672;48.176;16.338;2022-08-21T03:21:00;8.97;;;5.13;;
66761;SDS011;53672;48.176;16.338;2022-08-21T03:26:02;9.07;;;5.50;;
66761;SDS011;53672;48.176;16.338;2022-08-21T03:31:03;8.82;;;5.30;;
66761;SDS011;53672;48.176;16.338;2022-08-21T03:36:04;8.27;;;5.03;;
66761;SDS011;53672;48.176;16.338;2022-08-21T03:41:08;8.73;;;5.28;;
66761;SDS011;53672;48.176;16.338;2022-08-21T03:46:08;8.07;;;5.00;;
66761;SDS011;53672;48.176;16.338;2022-08-21T03:51:10;8.80;;;5.10;;
66761;SDS011;53672;48.176;16.338;2022-08-21T03:56:11;7.10;;;4.33;;
66761;SDS011;53672;48.176;16.338;2022-08-21T04:01:12;8.05;;;4.60;;
66761;SDS011;53672;48.176;16.338;2022-08-21T04:06:12;6.30;;;3.80;;
66761;SDS011;53672;48.176;16.338;2022-08-21T04:11:14;5.53;;;3.10;;
66761;SDS011;53672;48.176;16.338;2022-08-21T04:16:15;5.22;;;3.10;;
66761;SDS011;53672;48.176;16.338;2022-08-21T04:21:15;5.83;;;2.90;;
66761;SDS011;53672;48.176;16.338;2022-08-21T04:26:17;5.30;;;3.00;;
66761;SDS011;53672;48.176;16.338;2022-08-21T04:31:18;6.00;;;2.90;;
66761;SDS011;53672;48.176;16.338;2022-08-21T04:36:18;4.95;;;2.65;;
66761;SDS011;53672;48.176;16.338;2022-08-21T04:41:20;5.40;;;3.10;;
66761;SDS011;53672;48.176;16.338;2022-08-21T04:46:20;5.83;;;3.20;;
66761;SDS011;53672;48.176;16.338;2022-08-21T04:51:22;6.30;;;3.00;;
66761;SDS011;53672;48.176;16.338;2022-08-21T04:56:28;6.05;;;3.35;;
66761;SDS011;53672;48.176;16.338;2022-08-21T05:01:32;5.70;;;3.20;;
66761;SDS011;53672;48.176;16.338;2022-08-21T05:06:36;6.20;;;3.33;;
66761;SDS011;53672;48.176;16.338;2022-08-21T05:11:41;6.50;;;3.10;;
66761;SDS011;53672;48.176;16.338;2022-08-21T05:16:42;5.53;;;3.30;;
66761;SDS011;53672;48.176;16.338;2022-08-21T05:21:43;5.72;;;3.20;;
66761;SDS011;53672;48.176;16.338;2022-08-21T05:26:46;6.85;;;3.30;;
66761;SDS011;53672;48.176;16.338;2022-08-21T05:31:47;6.47;;;3.50;;
66761;SDS011;53672;48.176;16.338;2022-08-21T05:36:48;6.03;;;3.53;;
66761;SDS011;53672;48.176;16.338;2022-08-21T05:41:50;6.00;;;3.60;;
66761;SDS011;53672;48.176;16.338;2022-08-21T05:46:50;6.80;;;3.55;;
66761;SDS011;53672;48.176;16.338;2022-08-21T05:51:51;5.57;;;3.37;;
66761;SDS011;53672;48.176;16.338;2022-08-21T05:56:52;7.00;;;3.80;;
66761;SDS011;53672;48.176;16.338;2022-08-21T06:01:53;5.90;;;3.30;;
66761;SDS011;53672;48.176;16.338;2022-08-21T06:06:53;5.57;;;3.50;;
66761;SDS011;53672;48.176;16.338;2022-08-21T06:11:55;6.00;;;3.40;;
66761;SDS011;53672;48.176;16.338;2022-08-21T06:17:00;5.65;;;3.28;;
66761;SDS011;53672;48.176;16.338;2022-08-21T06:22:02;5.77;;;3.13;;
66761;SDS011;53672;48.176;16.338;2022-08-21T06:27:05;6.63;;;3.67;;
66761;SDS011;53672;48.176;16.338;2022-08-21T06:32:06;5.80;;;3.33;;
66761;SDS011;53672;48.176;16.338;2022-08-21T06:37:07;5.47;;;3.40;;
66761;SDS011;53672;48.176;16.338;2022-08-21T06:42:13;6.15;;;3.60;;
66761;SDS011;53672;48.176;16.338;2022-08-21T06:47:14;5.68;;;3.60;;
66761;SDS011;53672;48.176;16.338;2022-08-21T06:52:15;5.13;;;3.17;;
66761;SDS011;53672;48.176;16.338;2022-08-21T06:57:17;6.07;;;3.60;;
66761;SDS011;53672;48.176;16.338;2022-08-21T07:02:17;7.03;;;3.50;;
66761;SDS011;53672;48.176;16.338;2022-08-21T07:07:18;6.03;;;3.57;;
66761;SDS011;53672;48.176;16.338;2022-08-21T07:12:20;5.67;;;3.37;;
66761;SDS011;53672;48.176;16.338;2022-08-21T07:17:20;5.90;;;3.70;;
66761;SDS011;53672;48.176;16.338;2022-08-21T07:22:21;6.50;;;3.83;;
66761;SDS011;53672;48.176;16.338;2022-08-21T07:27:23;6.63;;;4.00;;
66761;SDS011;53672;48.176;16.338;2022-08-21T07:32:23;5.88;;;3.72;;
66761;SDS011;53672;48.176;16.338;2022-08-21T07:37:24;5.70;;;3.63;;
66761;SDS011;53672;48.176;16.338;2022-08-21T07:42:26;6.50;;;3.60;;
66761;SDS011;53672;48.176;16.338;2022-08-21T07:47:26;7.13;;;3.88;;
66761;SDS011;53672;48.176;16.338;2022-08-21T07:52:27;6.43;;;3.83;;
66761;SDS011;53672;48.176;16.338;2022-08-21T07:57:29;7.30;;;4.33;;
66761;SDS011;53672;48.176;16.338;2022-08-21T08:02:29;10.80;;;6.13;;
66761;SDS011;53672;48.176;16.338;2022-08-21T08:07:30;8.05;;;5.07;;
66761;SDS011;53672;48.176;16.338;2022-08-21T08:12:32;7.83;;;4.70;;
66761;SDS011;53672;48.176;16.338;2022-08-21T08:17:32;8.38;;;5.13;;
66761;SDS011;53672;48.176;16.338;2022-08-21T08:22:33;7.20;;;4.50;;
66761;SDS011;53672;48.176;16.338;2022-08-21T08:27:36;7.80;;;4.37;;
66761;SDS011;53672;48.176;16.338;2022-08-21T08:32:37;7.18;;;4.40;;
66761;SDS011;53672;48.176;16.338;2022-08-21T08:37:38;8.17;;;4.40;;
66761;SDS011;53672;48.176;16.338;2022-08-21T08:42:40;8.07;;;4.65;;
66761;SDS011;53672;48.176;16.338;2022-08-21T08:47:42;7.28;;;4.13;;
66761;SDS011;53672;48.176;16.338;2022-08-21T08:52:51;6.83;;;4.03;;
66761;SDS011;53672;48.176;16.338;2022-08-21T08:57:56;6.88;;;4.10;;
66761;SDS011;53672;48.176;16.338;2022-08-21T09:02:57;7.97;;;4.37;;
66761;SDS011;53672;48.176;16.338;2022-08-21T09:08:07;6.45;;;3.75;;
66761;SDS011;53672;48.176;16.338;2022-08-21T09:13:23;6.95;;;4.03;;
66761;SDS011;53672;48.176;16.338;2022-08-21T09:18:34;7.20;;;3.90;;
66761;SDS011;53672;48.176;16.338;2022-08-21T09:23:44;7.30;;;4.00;;
66761;SDS011;53672;48.176;16.338;2022-08-21T09:28:54;5.53;;;3.37;;
66761;SDS011;53672;48.176;16.338;2022-08-21T09:33:59;5.47;;;3.15;;
66761;SDS011;53672;48.176;16.338;2022-08-21T09:39:00;5.22;;;3.00;;
66761;SDS011;53672;48.176;16.338;2022-08-21T09:44:03;5.30;;;2.90;;
66761;SDS011;53672;48.176;16.338;2022-08-21T09:49:04;5.40;;;3.03;;
66761;SDS011;53672;48.176;16.338;2022-08-21T09:54:15;6.03;;;3.25;;
66761;SDS011;53672;48.176;16.338;2022-08-21T09:59:24;6.13;;;3.10;;
66761;SDS011;53672;48.176;16.338;2022-08-21T10:04:28;8.20;;;4.15;;
66761;SDS011;53672;48.176;16.338;2022-08-21T10:09:30;5.45;;;3.08;;
66761;SDS011;53672;48.176;16.338;2022-08-21T10:14:37;4.00;;;2.00;;
66761;SDS011;53672;48.176;16.338;2022-08-21T10:19:51;4.53;;;1.77;;
66761;SDS011;53672;48.176;16.338;2022-08-21T10:25:05;5.13;;;2.40;;
66761;SDS011;53672;48.176;16.338;2022-08-21T10:30:17;4.30;;;2.30;;
66761;SDS011;53672;48.176;16.338;2022-08-21T10:35:22;4.27;;;2.17;;
66761;SDS011;53672;48.176;16.338;2022-08-21T10:40:27;5.22;;;2.60;;
66761;SDS011;53672;48.176;16.338;2022-08-21T10:45:37;4.60;;;2.60;;
66761;SDS011;53672;48.176;16.338;2022-08-21T10:50:46;5.10;;;2.65;;
66761;SDS011;53672;48.176;16.338;2022-08-21T10:55:52;5.65;;;3.30;;
66761;SDS011;53672;48.176;16.338;2022-08-21T11:00:58;6.40;;;3.67;;
66761;SDS011;53672;48.176;16.338;2022-08-21T11:06:06;4.72;;;2.58;;
66761;SDS011;53672;48.176;16.338;2022-08-21T11:11:14;4.70;;;2.10;;
66761;SDS011;53672;48.176;16.338;2022-08-21T11:16:21;4.20;;;1.92;;
66761;SDS011;53672;48.176;16.338;2022-08-21T11:21:27;3.67;;;1.67;;
66761;SDS011;53672;48.176;16.338;2022-08-21T11:26:37;22.97;;;14.50;;
66761;SDS011;53672;48.176;16.338;2022-08-21T11:31:47;4.70;;;2.20;;
66761;SDS011;53672;48.176;16.338;2022-08-21T11:37:01;4.47;;;1.70;;
66761;SDS011;53672;48.176;16.338;2022-08-21T11:42:08;3.25;;;1.50;;
66761;SDS011;53672;48.176;16.338;2022-08-21T11:47:19;4.18;;;2.00;;
66761;SDS011;53672;48.176;16.338;2022-08-21T11:52:31;3.73;;;1.50;;
66761;SDS011;53672;48.176;16.338;2022-08-21T11:57:36;3.67;;;1.90;;
66761;SDS011;53672;48.176;16.338;2022-08-21T12:02:48;3.93;;;1.53;;
66761;SDS011;53672;48.176;16.338;2022-08-21T12:07:59;3.58;;;1.80;;
66761;SDS011;53672;48.176;16.338;2022-08-21T12:13:11;3.60;;;1.70;;
66761;SDS011;53672;48.176;16.338;2022-08-21T12:18:28;4.23;;;1.73;;
66761;SDS011;53672;48.176;16.338;2022-08-21T12:23:31;4.10;;;1.70;;
66761;SDS011;53672;48.176;16.338;2022-08-21T12:28:33;4.10;;;2.00;;
66761;SDS011;53672;48.176;16.338;2022-08-21T12:33:36;4.00;;;1.80;;
66761;SDS011;53672;48.176;16.338;2022-08-21T12:38:40;3.90;;;1.93;;
66761;SDS011;53672;48.176;16.338;2022-08-21T12:43:46;3.58;;;2.00;;
66761;SDS011;53672;48.176;16.338;2022-08-21T12:48:54;5.00;;;1.80;;
66761;SDS011;53672;48.176;16.338;2022-08-21T12:53:58;4.13;;;1.92;;
66761;SDS011;53672;48.176;16.338;2022-08-21T12:59:00;3.83;;;1.80;;
66761;SDS011;53672;48.176;16.338;2022-08-21T13:04:06;3.83;;;1.80;;
66761;SDS011;53672;48.176;16.338;2022-08-21T13:09:10;3.92;;;2.13;;
66761;SDS011;53672;48.176;16.338;2022-08-21T13:14:14;4.37;;;1.97;;
66761;SDS011;53672;48.176;16.338;2022-08-21T13:19:22;4.88;;;2.10;;
66761;SDS011;53672;48.176;16.338;2022-08-21T13:24:24;4.85;;;2.35;;
66761;SDS011;53672;48.176;16.338;2022-08-21T13:29:28;4.27;;;2.20;;
66761;SDS011;53672;48.176;16.338;2022-08-21T13:34:33;4.53;;;2.15;;
66761;SDS011;53672;48.176;16.338;2022-08-21T13:39:35;5.63;;;2.30;;
66761;SDS011;53672;48.176;16.338;2022-08-21T13:44:36;6.18;;;2.30;;
66761;SDS011;53672;48.176;16.338;2022-08-21T13:49:42;4.47;;;2.10;;
66761;SDS011;53672;48.176;16.338;2022-08-21T13:54:51;4.93;;;2.63;;
66761;SDS011;53672;48.176;16.338;2022-08-21T13:59:53;5.38;;;2.75;;
66761;SDS011;53672;48.176;16.338;2022-08-21T14:05:16;8.05;;;2.60;;
66761;SDS011;53672;48.176;16.338;2022-08-21T14:10:21;4.28;;;2.38;;
66761;SDS011;53672;48.176;16.338;2022-08-21T14:15:25;4.37;;;2.63;;
66761;SDS011;53672;48.176;16.338;2022-08-21T14:20:30;4.82;;;2.80;;
66761;SDS011;53672;48.176;16.338;2022-08-21T14:25:37;5.47;;;2.90;;
66761;SDS011;53672;48.176;16.338;2022-08-21T14:30:40;5.60;;;3.10;;
66761;SDS011;53672;48.176;16.338;2022-08-21T14:35:43;5.88;;;2.72;;
66761;SDS011;53672;48.176;16.338;2022-08-21T14:40:44;4.80;;;2.73;;
66761;SDS011;53672;48.176;16.338;2022-08-21T14:45:48;5.85;;;2.90;;
66761;SDS011;53672;48.176;16.338;2022-08-21T14:50:50;6.27;;;3.30;;
66761;SDS011;53672;48.176;16.338;2022-08-21T14:55:50;5.20;;;3.00;;
66761;SDS011;53672;48.176;16.338;2022-08-21T15:00:51;6.20;;;3.40;;
66761;SDS011;53672;48.176;16.338;2022-08-21T15:05:55;5.53;;;3.20;;
66761;SDS011;53672;48.176;16.338;2022-08-21T15:10:55;6.45;;;3.40;;
66761;SDS011;53672;48.176;16.338;2022-08-21T15:15:56;6.20;;;3.30;;
66761;SDS011;53672;48.176;16.338;2022-08-21T15:20:58;5.85;;;2.95;;
66761;SDS011;53672;48.176;16.338;2022-08-21T15:25:59;6.90;;;4.00;;
66761;SDS011;53672;48.176;16.338;2022-08-21T15:31:00;6.57;;;3.90;;
66761;SDS011;53672;48.176;16.338;2022-08-21T15:36:02;5.78;;;3.58;;
66761;SDS011;53672;48.176;16.338;2022-08-21T15:41:03;8.50;;;4.18;;
66761;SDS011;53672;48.176;16.338;2022-08-21T15:46:04;6.53;;;3.50;;
66761;SDS011;53672;48.176;16.338;2022-08-21T15:51:06;6.28;;;3.92;;
66761;SDS011;53672;48.176;16.338;2022-08-21T15:56:10;8.37;;;3.87;;
66761;SDS011;53672;48.176;16.338;2022-08-21T16:01:17;5.78;;;3.25;;
66761;SDS011;53672;48.176;16.338;2022-08-21T16:06:18;6.57;;;3.80;;
66761;SDS011;53672;48.176;16.338;2022-08-21T16:11:19;6.68;;;3.72;;
66761;SDS011;53672;48.176;16.338;2022-08-21T16:16:21;7.10;;;4.07;;
66761;SDS011;53672;48.176;16.338;2022-08-21T16:21:25;7.55;;;4.00;;
66761;SDS011;53672;48.176;16.338;2022-08-21T16:26:25;7.13;;;3.60;;
66761;SDS011;53672;48.176;16.338;2022-08-21T16:31:26;8.00;;;4.63;;
66761;SDS011;53672;48.176;16.338;2022-08-21T16:36:28;6.77;;;3.73;;
66761;SDS011;53672;48.176;16.338;2022-08-21T16:41:30;6.78;;;3.80;;
66761;SDS011;53672;48.176;16.338;2022-08-21T16:46:34;9.03;;;4.50;;
66761;SDS011;53672;48.176;16.338;2022-08-21T16:51:39;8.20;;;4.60;;
66761;SDS011;53672;48.176;16.338;2022-08-21T16:56:39;7.45;;;4.47;;
66761;SDS011;53672;48.176;16.338;2022-08-21T17:01:40;7.28;;;4.40;;
66761;SDS011;53672;48.176;16.338;2022-08-21T17:06:42;9.75;;;4.50;;
66761;SDS011;53672;48.176;16.338;2022-08-21T17:11:44;9.70;;;4.63;;
66761;SDS011;53672;48.176;16.338;2022-08-21T17:16:47;7.72;;;4.38;;
66761;SDS011;53672;48.176;16.338;2022-08-21T17:21:52;7.07;;;4.20;;
66761;SDS011;53672;48.176;16.338;2022-08-21T17:26:52;6.63;;;4.25;;
66761;SDS011;53672;48.176;16.338;2022-08-21T17:31:54;8.65;;;4.30;;
66761;SDS011;53672;48.176;16.338;2022-08-21T17:36:56;8.57;;;4.53;;
66761;SDS011;53672;48.176;16.338;2022-08-21T17:41:56;5.93;;;4.00;;
66761;SDS011;53672;48.176;16.338;2022-08-21T17:47:00;7.87;;;4.50;;
66761;SDS011;53672;48.176;16.338;2022-08-21T17:52:03;8.88;;;4.35;;
66761;SDS011;53672;48.176;16.338;2022-08-21T17:57:04;7.88;;;4.20;;
66761;SDS011;53672;48.176;16.338;2022-08-21T18:02:04;7.18;;;4.03;;
66761;SDS011;53672;48.176;16.338;2022-08-21T18:07:07;8.70;;;4.30;;
66761;SDS011;53672;48.176;16.338;2022-08-21T18:12:07;6.75;;;3.97;;
66761;SDS011;53672;48.176;16.338;2022-08-21T18:17:11;8.47;;;4.60;;
66761;SDS011;53672;48.176;16.338;2022-08-21T18:22:18;9.77;;;4.20;;
66761;SDS011;53672;48.176;16.338;2022-08-21T18:27:19;6.73;;;3.67;;
66761;SDS011;53672;48.176;16.338;2022-08-21T18:32:21;6.05;;;3.75;;
66761;SDS011;53672;48.176;16.338;2022-08-21T18:37:25;7.00;;;4.10;;
66761;SDS011;53672;48.176;16.338;2022-08-21T18:42:25;8.23;;;3.90;;
66761;SDS011;53672;48.176;16.338;2022-08-21T18:47:38;8.30;;;4.47;;
66761;SDS011;53672;48.176;16.338;2022-08-21T18:52:44;6.80;;;3.93;;
66761;SDS011;53672;48.176;16.338;2022-08-21T18:57:45;7.50;;;4.03;;
66761;SDS011;53672;48.176;16.338;2022-08-21T19:02:46;9.98;;;4.53;;
66761;SDS011;53672;48.176;16.338;2022-08-21T19:07:48;7.97;;;4.40;;
66761;SDS011;53672;48.176;16.338;2022-08-21T19:12:49;7.90;;;5.13;;
66761;SDS011;53672;48.176;16.338;2022-08-21T19:17:50;8.63;;;4.70;;
66761;SDS011;53672;48.176;16.338;2022-08-21T19:22:53;6.68;;;4.05;;
66761;SDS011;53672;48.176;16.338;2022-08-21T19:27:54;8.15;;;4.10;;
66761;SDS011;53672;48.176;16.338;2022-08-21T19:32:55;7.67;;;3.90;;
66761;SDS011;53672;48.176;16.338;2022-08-21T19:37:56;6.93;;;4.07;;
66761;SDS011;53672;48.176;16.338;2022-08-21T19:42:57;7.80;;;4.32;;
66761;SDS011;53672;48.176;16.338;2022-08-21T19:47:57;6.80;;;4.10;;
66761;SDS011;53672;48.176;16.338;2022-08-21T19:52:59;7.70;;;4.70;;
66761;SDS011;53672;48.176;16.338;2022-08-21T19:58:00;8.90;;;4.85;;
66761;SDS011;53672;48.176;16.338;2022-08-21T20:03:01;8.32;;;5.20;;
66761;SDS011;53672;48.176;16.338;2022-08-21T20:08:04;9.07;;;5.55;;
66761;SDS011;53672;48.176;16.338;2022-08-21T20:13:04;7.97;;;4.82;;
66761;SDS011;53672;48.176;16.338;2022-08-21T20:18:05;10.60;;;5.17;;
66761;SDS011;53672;48.176;16.338;2022-08-21T20:23:07;10.20;;;5.77;;
66761;SDS011;53672;48.176;16.338;2022-08-21T20:28:08;9.70;;;6.43;;
66761;SDS011;53672;48.176;16.338;2022-08-21T20:33:08;8.57;;;5.20;;
66761;SDS011;53672;48.176;16.338;2022-08-21T20:38:11;8.55;;;4.07;;
66761;SDS011;53672;48.176;16.338;2022-08-21T20:43:11;6.85;;;4.00;;
66761;SDS011;53672;48.176;16.338;2022-08-21T20:48:14;6.20;;;3.72;;
66761;SDS011;53672;48.176;16.338;2022-08-21T20:53:26;6.93;;;4.23;;
66761;SDS011;53672;48.176;16.338;2022-08-21T20:58:33;7.25;;;4.45;;
66761;SDS011;53672;48.176;16.338;2022-08-21T21:03:39;8.77;;;4.47;;
66761;SDS011;53672;48.176;16.338;2022-08-21T21:08:45;8.27;;;4.40;;
66761;SDS011;53672;48.176;16.338;2022-08-21T21:13:50;8.40;;;4.55;;
66761;SDS011;53672;48.176;16.338;2022-08-21T21:18:56;8.47;;;4.20;;
66761;SDS011;53672;48.176;16.338;2022-08-21T21:24:03;8.18;;;4.78;;
66761;SDS011;53672;48.176;16.338;2022-08-21T21:29:07;8.70;;;4.90;;
66761;SDS011;53672;48.176;16.338;2022-08-21T21:34:13;9.38;;;4.88;;
66761;SDS011;53672;48.176;16.338;2022-08-21T21:39:16;7.93;;;5.10;;
66761;SDS011;53672;48.176;16.338;2022-08-21T21:44:36;10.02;;;5.80;;
66761;SDS011;53672;48.176;16.338;2022-08-21T21:49:55;9.93;;;5.43;;
66761;SDS011;53672;48.176;16.338;2022-08-21T21:55:07;11.05;;;5.68;;
66761;SDS011;53672;48.176;16.338;2022-08-21T22:00:17;11.82;;;6.32;;
66761;SDS011;53672;48.176;16.338;2022-08-21T22:05:24;10.43;;;6.03;;
66761;SDS011;53672;48.176;16.338;2022-08-21T22:10:37;10.27;;;6.10;;
66761;SDS011;53672;48.176;16.338;2022-08-21T22:15:41;12.23;;;6.70;;
66761;SDS011;53672;48.176;16.338;2022-08-21T22:20:44;11.57;;;6.97;;
66761;SDS011;53672;48.176;16.338;2022-08-21T22:25:51;11.07;;;7.00;;
66761;SDS011;53672;48.176;16.338;2022-08-21T22:31:09;11.55;;;7.60;;
66761;SDS011;53672;48.176;16.338;2022-08-21T22:36:15;12.57;;;7.57;;
66761;SDS011;53672;48.176;16.338;2022-08-21T22:41:22;11.63;;;7.32;;
66761;SDS011;53672;48.176;16.338;2022-08-21T22:46:29;11.48;;;7.20;;
66761;SDS011;53672;48.176;16.338;2022-08-21T22:51:34;11.60;;;7.20;;
66761;SDS011;53672;48.176;16.338;2022-08-21T22:56:39;11.05;;;5.90;;
66761;SDS011;53672;48.176;16.338;2022-08-21T23:01:42;11.17;;;5.73;;
66761;SDS011;53672;48.176;16.338;2022-08-21T23:06:44;9.07;;;4.68;;
66761;SDS011;53672;48.176;16.338;2022-08-21T23:11:47;9.13;;;4.80;;
66761;SDS011;53672;48.176;16.338;2022-08-21T23:16:49;8.55;;;4.90;;
66761;SDS011;53672;48.176;16.338;2022-08-21T23:21:55;9.98;;;5.20;;
66761;SDS011;53672;48.176;16.338;2022-08-21T23:27:06;10.30;;;5.47;;
66761;SDS011;53672;48.176;16.338;2022-08-21T23:32:17;10.05;;;5.00;;
66761;SDS011;53672;48.176;16.338;2022-08-21T23:37:31;9.20;;;5.60;;
66761;SDS011;53672;48.176;16.338;2022-08-21T23:42:45;8.90;;;5.85;;
66761;SDS011;53672;48.176;16.338;2022-08-21T23:48:02;8.50;;;5.43;;
66761;SDS011;53672;48.176;16.338;2022-08-21T23:53:14;9.10;;;5.53;;
66761;SDS011;53672;48.176;16.338;2022-08-21T23:58:27;8.95;;;5.72;;
